createdAt,value
2023-04-01T00:00:01.791Z,99126.34
2023-04-01T00:03:14.240Z,99123.13
2023-04-01T00:06:18.914Z,99128.12
2023-04-01T00:09:21.543Z,99120.22
2023-04-01T00:12:26.060Z,99122.56
2023-04-01T00:15:28.291Z,99124.94
2023-04-01T00:18:31.551Z,99119.81
2023-04-01T00:21:34.121Z,99114.16
2023-04-01T00:24:36.691Z,99117.00
2023-04-01T00:27:38.986Z,99121.66
2023-04-01T00:30:41.766Z,99120.75
2023-04-01T00:33:44.250Z,99115.41
2023-04-01T00:36:46.734Z,99115.66
2023-04-01T00:39:49.349Z,99107.22
2023-04-01T00:42:52.298Z,99104.59
2023-04-01T00:45:54.498Z,99109.81
2023-04-01T00:48:57.583Z,99103.69
2023-04-01T00:52:02.495Z,99093.19
2023-04-01T00:55:08.350Z,99097.25
2023-04-01T00:58:16.781Z,99097.50
2023-04-01T01:01:23.007Z,99101.13
2023-04-01T01:04:31.300Z,99100.19
2023-04-01T01:07:42.933Z,99089.62
2023-04-01T01:10:50.551Z,99104.63
2023-04-01T01:14:44.190Z,99099.00
2023-04-01T01:17:46.475Z,99097.06
2023-04-01T01:21:07.779Z,99096.19
2023-04-01T01:24:43.237Z,99093.41
2023-04-01T01:27:55.747Z,99086.06
2023-04-01T01:31:17.071Z,99086.81
2023-04-01T01:34:53.842Z,99085.13
2023-04-01T01:38:00.923Z,99082.91
2023-04-01T01:41:06.416Z,99087.34
2023-04-01T01:44:12.161Z,99089.28
2023-04-01T01:47:16.389Z,99088.56
2023-04-01T01:50:20.529Z,99086.25
2023-04-01T01:53:23.147Z,99083.03
2023-04-01T01:56:29.553Z,99079.03
2023-04-01T01:59:34.206Z,99084.44
2023-04-01T02:02:36.475Z,99091.44
2023-04-01T02:05:40.653Z,99080.44
2023-04-01T02:08:42.931Z,99078.37
2023-04-01T02:12:00.466Z,99083.38
2023-04-01T02:15:13.418Z,99083.94
2023-04-01T02:18:17.351Z,99077.94
2023-04-01T02:21:23.194Z,99073.91
2023-04-01T02:24:29.068Z,99076.94
2023-04-01T02:27:31.948Z,99074.19
2023-04-01T02:30:37.650Z,99069.59
2023-04-01T02:33:40.939Z,99069.59
2023-04-01T02:36:43.739Z,99069.19
2023-04-01T02:39:46.295Z,99069.59
2023-04-01T02:42:48.534Z,99061.41
2023-04-01T02:45:51.329Z,99055.34
2023-04-01T02:48:54.642Z,99058.13
2023-04-01T02:51:57.196Z,99064.22
2023-04-01T02:54:59.395Z,99063.78
2023-04-01T02:58:02.678Z,99064.75
2023-04-01T03:01:05.316Z,99077.25
2023-04-01T03:04:07.902Z,99069.44
2023-04-01T03:07:11.240Z,99063.13
2023-04-01T03:10:13.695Z,99068.38
2023-04-01T03:13:15.760Z,99069.13
2023-04-01T03:16:19.034Z,99063.44
2023-04-01T03:19:21.301Z,99061.06
2023-04-01T03:22:24.022Z,99063.31
2023-04-01T03:25:26.233Z,99057.63
2023-04-01T03:28:28.726Z,99067.62
2023-04-01T03:31:31.079Z,99081.28
2023-04-01T03:34:33.862Z,99083.16
2023-04-01T03:37:36.299Z,99083.16
2023-04-01T03:40:42.880Z,99080.09
2023-04-01T03:43:45.622Z,99093.47
2023-04-01T03:46:48.164Z,99077.63
2023-04-01T03:49:50.904Z,99089.38
2023-04-01T03:52:53.464Z,99083.38
2023-04-01T03:55:56.624Z,99094.22
2023-04-01T03:58:59.467Z,99094.78
2023-04-01T04:02:01.773Z,99094.37
2023-04-01T04:05:04.699Z,99085.81
2023-04-01T04:08:09.203Z,99098.38
2023-04-01T04:11:11.823Z,99093.69
2023-04-01T04:14:14.476Z,99097.59
2023-04-01T04:17:17.445Z,99096.84
2023-04-01T04:20:19.795Z,99095.25
2023-04-01T04:23:22.614Z,99091.22
2023-04-01T04:26:24.895Z,99087.72
2023-04-01T04:29:27.881Z,99089.41
2023-04-01T04:32:31.247Z,99092.69
2023-04-01T04:35:34.345Z,99086.31
2023-04-01T04:38:37.014Z,99080.78
2023-04-01T04:41:39.854Z,99083.16
2023-04-01T04:44:42.094Z,99074.00
2023-04-01T04:47:44.589Z,99074.50
2023-04-01T04:50:51.865Z,99071.37
2023-04-01T04:53:54.788Z,99075.56
2023-04-01T04:56:58.180Z,99071.03
2023-04-01T05:00:01.211Z,99075.22
2023-04-01T05:03:04.706Z,99083.88
2023-04-01T05:06:10.280Z,99082.22
2023-04-01T05:09:12.746Z,99080.69
2023-04-01T05:12:15.903Z,99074.53
2023-04-01T05:15:20.451Z,99080.25
2023-04-01T05:18:23.489Z,99077.41
2023-04-01T05:21:25.694Z,99082.75
2023-04-01T05:24:28.688Z,99089.72
2023-04-01T05:27:31.072Z,99094.47
2023-04-01T05:30:33.530Z,99098.22
2023-04-01T05:33:36.578Z,99098.31
2023-04-01T05:36:40.804Z,99097.31
2023-04-01T05:39:43.238Z,99102.88
2023-04-01T05:42:45.846Z,99103.00
2023-04-01T05:45:49.612Z,99102.09
2023-04-01T05:48:55.404Z,99111.03
2023-04-01T05:51:59.114Z,99105.38
2023-04-01T05:55:01.798Z,99092.38
2023-04-01T05:58:04.305Z,99088.44
2023-04-01T06:01:14.093Z,99098.25
2023-04-01T06:04:19.365Z,99090.09
2023-04-01T06:07:21.615Z,99101.59
2023-04-01T06:10:40.730Z,99094.25
2023-04-01T06:14:19.548Z,99099.97
2023-04-01T06:18:03.483Z,99089.31
2023-04-01T06:21:21.477Z,99101.56
2023-04-01T06:24:31.982Z,99084.81
2023-04-01T06:28:03.452Z,99091.56
2023-04-01T06:31:50.583Z,99089.06
2023-04-01T06:35:12.262Z,99093.81
2023-04-01T06:38:29.520Z,99104.56
2023-04-01T06:41:51.762Z,99104.06
2023-04-01T06:45:07.923Z,99099.25
2023-04-01T06:48:46.400Z,99108.84
2023-04-01T06:52:03.590Z,99115.69
2023-04-01T06:55:29.286Z,99113.00
2023-04-01T06:58:42.674Z,99127.62
2023-04-01T07:02:19.324Z,99115.03
2023-04-01T07:05:23.970Z,99118.25
2023-04-01T07:08:30.519Z,99108.56
2023-04-01T07:11:38.143Z,99106.16
2023-04-01T07:14:44.468Z,99108.94
2023-04-01T07:17:53.854Z,99113.62
2023-04-01T07:20:56.537Z,99118.81
2023-04-01T07:24:05.999Z,99115.69
2023-04-01T07:27:14.319Z,99118.69
2023-04-01T07:30:22.799Z,99115.06
2023-04-01T07:33:28.468Z,99104.44
2023-04-01T07:36:49.679Z,99110.84
2023-04-01T07:40:21.849Z,99117.41
2023-04-01T07:43:53.760Z,99121.44
2023-04-01T07:47:18.412Z,99120.81
2023-04-01T07:50:28.646Z,99115.94
2023-04-01T07:53:58.231Z,99114.38
2023-04-01T07:57:24.095Z,99112.13
2023-04-01T08:00:51.053Z,99121.03
2023-04-01T08:04:24.275Z,99125.47
2023-04-01T08:07:43.252Z,99123.44
2023-04-01T08:11:03.855Z,99124.97
2023-04-01T08:14:57.019Z,99131.19
2023-04-01T08:18:30.762Z,99137.03
2023-04-01T08:21:52.206Z,99131.38
2023-04-01T08:25:00.824Z,99126.38
2023-04-01T08:28:24.590Z,99140.53
2023-04-01T08:31:54.698Z,99124.72
2023-04-01T08:35:16.429Z,99131.84
2023-04-01T08:38:38.940Z,99128.75
2023-04-01T08:41:57.495Z,99123.66
2023-04-01T08:45:14.271Z,99124.37
2023-04-01T08:48:31.261Z,99118.13
2023-04-01T08:51:56.925Z,99117.19
2023-04-01T08:55:02.397Z,99120.38
2023-04-01T08:58:08.792Z,99121.19
2023-04-01T09:01:14.829Z,99123.50
2023-04-01T09:05:11.586Z,99127.06
2023-04-01T09:08:20.264Z,99120.38
2023-04-01T09:11:53.089Z,99120.44
2023-04-01T09:15:32.663Z,99114.84
2023-04-01T09:19:28.052Z,99115.66
2023-04-01T09:23:07.789Z,99124.81
2023-04-01T09:26:29.333Z,99126.03
2023-04-01T09:30:01.926Z,99127.88
2023-04-01T09:33:44.160Z,99127.47
2023-04-01T09:36:52.000Z,99115.09
2023-04-01T09:40:27.340Z,99126.44
2023-04-01T09:43:45.988Z,99123.53
2023-04-01T09:47:28.945Z,99127.56
2023-04-01T09:50:45.241Z,99131.72
2023-04-01T09:53:54.643Z,99126.94
2023-04-01T09:57:11.352Z,99134.09
2023-04-01T10:00:20.543Z,99133.09
2023-04-01T10:04:01.453Z,99134.75
2023-04-01T10:07:30.014Z,99134.53
2023-04-01T10:10:32.412Z,99124.03
2023-04-01T10:13:47.040Z,99136.06
2023-04-01T10:17:26.933Z,99139.56
2023-04-01T10:20:54.439Z,99141.94
2023-04-01T10:24:13.337Z,99139.34
2023-04-01T10:27:37.494Z,99141.81
2023-04-01T10:31:11.252Z,99136.94
2023-04-01T10:34:56.117Z,99130.19
2023-04-01T10:38:46.844Z,99137.69
2023-04-01T10:42:30.817Z,99133.78
2023-04-01T10:45:47.802Z,99131.75
2023-04-01T10:49:06.407Z,99126.56
2023-04-01T10:52:43.850Z,99121.53
2023-04-01T10:56:10.337Z,99126.53
2023-04-01T10:59:21.946Z,99128.84
2023-04-01T11:02:49.853Z,99126.91
2023-04-01T11:06:25.398Z,99124.78
2023-04-01T11:10:05.592Z,99123.41
2023-04-01T11:13:25.628Z,99111.50
2023-04-01T11:16:56.016Z,99118.09
2023-04-01T11:20:20.112Z,99102.56
2023-04-01T11:23:55.061Z,99103.25
2023-04-01T11:27:16.889Z,99112.72
2023-04-01T11:31:14.107Z,99122.38
2023-04-01T11:34:35.226Z,99116.84
2023-04-01T11:37:50.216Z,99123.06
2023-04-01T11:41:03.259Z,99114.00
2023-04-01T11:44:19.022Z,99123.28
2023-04-01T11:47:36.739Z,99121.81
2023-04-01T11:50:47.807Z,99125.19
2023-04-01T11:54:03.291Z,99126.59
2023-04-01T11:57:14.030Z,99136.56
2023-04-01T12:00:41.551Z,99136.28
2023-04-01T12:04:12.155Z,99131.59
2023-04-01T12:07:26.188Z,99129.28
2023-04-01T12:11:09.473Z,99122.94
2023-04-01T12:14:32.480Z,99128.22
2023-04-01T12:17:50.064Z,99130.03
2023-04-01T12:21:12.223Z,99125.28
2023-04-01T12:24:37.528Z,99133.28
2023-04-01T12:28:07.973Z,99136.81
2023-04-01T12:31:47.343Z,99133.53
2023-04-01T12:35:07.514Z,99117.53
2023-04-01T12:38:29.480Z,99124.53
2023-04-01T12:42:13.432Z,99122.84
2023-04-01T12:45:33.038Z,99136.34
2023-04-01T12:49:06.478Z,99132.69
2023-04-01T12:52:36.499Z,99132.22
2023-04-01T12:55:44.177Z,99117.66
2023-04-01T12:59:08.840Z,99124.28
2023-04-01T13:02:14.972Z,99123.59
2023-04-01T13:05:29.447Z,99114.53
2023-04-01T13:08:56.489Z,99110.97
2023-04-01T13:12:24.055Z,99109.66
2023-04-01T13:15:34.960Z,99114.84
2023-04-01T13:18:40.648Z,99106.91
2023-04-01T13:21:59.706Z,99111.59
2023-04-01T13:25:28.060Z,99116.13
2023-04-01T13:28:58.384Z,99108.63
2023-04-01T13:32:16.263Z,99108.53
2023-04-01T13:35:25.978Z,99109.56
2023-04-01T13:38:47.034Z,99120.53
2023-04-01T13:42:07.378Z,99109.81
2023-04-01T13:45:28.072Z,99124.22
2023-04-01T13:49:04.356Z,99123.28
2023-04-01T13:52:31.004Z,99123.84
2023-04-01T13:55:36.384Z,99130.78
2023-04-01T13:58:47.042Z,99127.19
2023-04-01T14:02:06.364Z,99137.72
2023-04-01T14:05:43.176Z,99136.59
2023-04-01T14:09:00.892Z,99144.84
2023-04-01T14:12:21.826Z,99141.88
2023-04-01T14:15:39.757Z,99148.97
2023-04-01T14:19:09.060Z,99143.81
2023-04-01T14:22:37.617Z,99134.53
2023-04-01T14:25:46.363Z,99135.84
2023-04-01T14:29:37.388Z,99127.84
2023-04-01T14:33:17.755Z,99130.53
2023-04-01T14:36:22.657Z,99130.72
2023-04-01T14:39:43.959Z,99122.28
2023-04-01T14:43:07.737Z,99123.03
2023-04-01T14:46:18.291Z,99118.41
2023-04-01T14:49:52.669Z,99118.59
2023-04-01T14:53:01.075Z,99125.31
2023-04-01T14:56:05.692Z,99124.63
2023-04-01T14:59:11.611Z,99118.03
2023-04-01T15:02:42.693Z,99116.28
2023-04-01T15:05:56.455Z,99119.59
2023-04-01T15:09:32.821Z,99125.44
2023-04-01T15:13:01.274Z,99125.03
2023-04-01T15:16:09.205Z,99128.19
2023-04-01T15:19:30.845Z,99123.50
2023-04-01T15:22:50.863Z,99128.94
2023-04-01T15:26:31.421Z,99133.09
2023-04-01T15:30:24.811Z,99130.00
2023-04-01T15:33:56.420Z,99121.03
2023-04-01T15:37:04.586Z,99132.56
2023-04-01T15:40:24.051Z,99118.66
2023-04-01T15:43:55.791Z,99137.91
2023-04-01T15:46:59.122Z,99136.91
2023-04-01T15:50:19.806Z,99141.84
2023-04-01T15:53:31.697Z,99136.62
2023-04-01T15:56:58.944Z,99140.28
2023-04-01T16:00:27.383Z,99147.34
2023-04-01T16:03:44.480Z,99147.66
2023-04-01T16:07:03.532Z,99144.44
2023-04-01T16:10:36.799Z,99145.59
2023-04-01T16:14:05.019Z,99154.69
2023-04-01T16:17:52.557Z,99155.53
2023-04-01T16:21:21.929Z,99162.34
2023-04-01T16:24:24.436Z,99163.72
2023-04-01T16:27:37.414Z,99160.41
2023-04-01T16:30:47.954Z,99159.06
2023-04-01T16:33:52.928Z,99162.37
2023-04-01T16:37:20.731Z,99168.75
2023-04-01T16:40:46.020Z,99164.28
2023-04-01T16:44:01.200Z,99174.34
2023-04-01T16:47:16.779Z,99175.34
2023-04-01T16:50:19.256Z,99178.69
2023-04-01T16:53:54.060Z,99176.19
2023-04-01T16:57:05.610Z,99172.06
2023-04-01T17:00:21.158Z,99181.56
2023-04-01T17:03:33.074Z,99181.03
2023-04-01T17:06:54.701Z,99184.53
2023-04-01T17:10:15.386Z,99189.50
2023-04-01T17:13:36.162Z,99188.84
2023-04-01T17:17:06.817Z,99189.88
2023-04-01T17:20:37.725Z,99200.69
2023-04-01T17:24:01.573Z,99202.50
2023-04-01T17:27:49.623Z,99204.81
2023-04-01T17:31:01.569Z,99207.75
2023-04-01T17:34:22.500Z,99204.06
2023-04-01T17:37:33.017Z,99206.78
2023-04-01T17:41:16.535Z,99216.84
2023-04-01T17:44:50.321Z,99210.84
2023-04-01T17:48:23.776Z,99216.06
2023-04-01T17:51:41.811Z,99213.72
2023-04-01T17:54:52.256Z,99216.03
2023-04-01T17:58:18.964Z,99223.37
2023-04-01T18:01:41.845Z,99228.47
2023-04-01T18:04:56.595Z,99241.34
2023-04-01T18:08:40.333Z,99248.53
2023-04-01T18:12:28.193Z,99251.06
2023-04-01T18:16:13.845Z,99251.63
2023-04-01T18:19:28.591Z,99255.66
2023-04-01T18:22:39.451Z,99265.50
2023-04-01T18:25:49.040Z,99268.38
2023-04-01T18:28:59.580Z,99268.66
2023-04-01T18:32:12.077Z,99280.31
2023-04-01T18:35:29.751Z,99279.81
2023-04-01T18:38:37.454Z,99270.75
2023-04-01T18:42:00.953Z,99281.47
2023-04-01T18:45:35.547Z,99291.09
2023-04-01T18:48:58.745Z,99287.81
2023-04-01T18:52:17.310Z,99290.03
2023-04-01T18:55:23.908Z,99291.84
2023-04-01T18:58:51.561Z,99299.22
2023-04-01T19:02:14.908Z,99294.19
2023-04-01T19:05:24.226Z,99295.66
2023-04-01T19:08:37.368Z,99294.59
2023-04-01T19:11:57.117Z,99299.25
2023-04-01T19:15:21.343Z,99296.91
2023-04-01T19:18:36.662Z,99294.41
2023-04-01T19:21:56.462Z,99294.94
2023-04-01T19:25:18.063Z,99300.94
2023-04-01T19:28:54.438Z,99312.09
2023-04-01T19:32:16.042Z,99302.06
2023-04-01T19:35:30.254Z,99302.75
2023-04-01T19:38:40.274Z,99305.84
2023-04-01T19:42:08.370Z,99308.16
2023-04-01T19:45:36.285Z,99312.69
2023-04-01T19:48:57.297Z,99311.81
2023-04-01T19:52:30.593Z,99317.69
2023-04-01T19:55:51.407Z,99325.72
2023-04-01T19:59:14.432Z,99329.78
2023-04-01T20:02:52.239Z,99318.25
2023-04-01T20:06:38.473Z,99324.19
2023-04-01T20:09:59.581Z,99328.50
2023-04-01T20:13:11.424Z,99333.22
2023-04-01T20:16:16.368Z,99329.84
2023-04-01T20:19:28.907Z,99328.84
2023-04-01T20:23:03.103Z,99333.53
2023-04-01T20:26:11.386Z,99331.59
2023-04-01T20:29:22.797Z,99324.06
2023-04-01T20:33:10.672Z,99324.00
2023-04-01T20:36:35.717Z,99330.81
2023-04-01T20:40:00.124Z,99331.72
2023-04-01T20:43:25.643Z,99339.34
2023-04-01T20:46:31.011Z,99340.97
2023-04-01T20:49:46.980Z,99340.78
2023-04-01T20:53:12.632Z,99350.91
2023-04-01T20:56:17.750Z,99353.31
2023-04-01T20:59:26.929Z,99358.97
2023-04-01T21:03:00.510Z,99365.09
2023-04-01T21:06:28.898Z,99356.47
2023-04-01T21:09:42.953Z,99364.31
2023-04-01T21:13:08.454Z,99369.84
2023-04-01T21:16:50.456Z,99362.44
2023-04-01T21:20:10.965Z,99357.66
2023-04-01T21:23:30.242Z,99362.75
2023-04-01T21:26:40.266Z,99367.69
2023-04-01T21:30:20.040Z,99374.44
2023-04-01T21:33:37.300Z,99372.28
2023-04-01T21:37:01.594Z,99376.50
2023-04-01T21:40:25.520Z,99381.03
2023-04-01T21:43:47.909Z,99386.88
2023-04-01T21:47:21.590Z,99389.78
2023-04-01T21:50:23.717Z,99392.56
2023-04-01T21:53:56.557Z,99386.75
2023-04-01T21:57:26.745Z,99389.53
2023-04-01T22:00:32.400Z,99381.94
2023-04-01T22:03:59.679Z,99379.09
2023-04-01T22:07:04.949Z,99382.31
2023-04-01T22:10:19.444Z,99378.22
2023-04-01T22:13:31.956Z,99394.09
2023-04-01T22:16:49.512Z,99392.91
2023-04-01T22:20:06.453Z,99393.41
2023-04-01T22:23:11.861Z,99402.19
2023-04-01T22:26:39.510Z,99400.84
2023-04-01T22:30:04.065Z,99398.97
2023-04-01T22:33:21.489Z,99409.16
2023-04-01T22:36:56.244Z,99407.16
2023-04-01T22:39:58.325Z,99406.97
2023-04-01T22:43:07.493Z,99423.66
2023-04-01T22:46:38.155Z,99425.00
2023-04-01T22:49:47.786Z,99421.44
2023-04-01T22:52:59.869Z,99419.75
2023-04-01T22:56:08.428Z,99418.94
2023-04-01T22:59:25.131Z,99421.16
2023-04-01T23:02:36.122Z,99431.16
2023-04-01T23:05:47.069Z,99432.00
2023-04-01T23:08:57.735Z,99432.69
2023-04-01T23:12:05.626Z,99444.44
2023-04-01T23:15:15.389Z,99447.31
2023-04-01T23:18:36.401Z,99448.97
2023-04-01T23:21:49.409Z,99445.22
2023-04-01T23:24:58.812Z,99448.91
2023-04-01T23:28:16.858Z,99447.22
2023-04-01T23:31:38.379Z,99451.69
2023-04-01T23:34:46.770Z,99447.41
2023-04-01T23:37:48.943Z,99452.87
2023-04-01T23:40:54.622Z,99455.09
2023-04-01T23:44:02.532Z,99453.69
2023-04-01T23:47:06.932Z,99470.31
2023-04-01T23:50:19.604Z,99464.06
2023-04-01T23:53:26.195Z,99481.22
2023-04-01T23:56:49.423Z,99482.25
